createdAt,value
2023-12-02T00:00:58.257Z,24.77
2023-12-02T00:05:59.656Z,22.63
2023-12-02T00:11:01.057Z,24.80
2023-12-02T00:16:02.364Z,23.38
2023-12-02T00:21:03.804Z,22.05
2023-12-02T00:26:05.257Z,23.17
2023-12-02T00:31:06.886Z,23.42
2023-12-02T00:36:08.423Z,24.55
2023-12-02T00:41:11.301Z,24.42
2023-12-02T00:46:12.642Z,23.30
2023-12-02T00:51:13.962Z,22.70
2023-12-02T00:56:15.328Z,22.33
2023-12-02T01:01:16.599Z,21.75
2023-12-02T01:06:17.959Z,23.50
2023-12-02T01:11:19.466Z,20.55
2023-12-02T01:16:20.781Z,19.77
2023-12-02T01:21:22.171Z,19.10
2023-12-02T01:26:24.613Z,19.35
2023-12-02T01:31:25.953Z,19.05
2023-12-02T01:36:27.897Z,22.30
2023-12-02T01:41:32.762Z,23.70
2023-12-02T01:46:34.085Z,22.20
2023-12-02T01:51:35.704Z,24.83
2023-12-02T01:56:37.145Z,21.08
2023-12-02T02:01:38.781Z,21.67
2023-12-02T02:06:40.301Z,18.80
2023-12-02T02:11:41.845Z,18.15
2023-12-02T02:16:43.151Z,19.15
2023-12-02T02:21:44.487Z,19.02
2023-12-02T02:26:45.758Z,17.13
2023-12-02T02:31:47.027Z,17.70
2023-12-02T02:36:48.394Z,21.40
2023-12-02T02:41:50.113Z,19.17
2023-12-02T02:46:51.878Z,19.33
2023-12-02T02:51:53.238Z,20.77
2023-12-02T02:56:54.825Z,16.80
2023-12-02T03:01:56.358Z,23.05
2023-12-02T03:06:57.805Z,18.25
2023-12-02T03:11:59.156Z,20.88
2023-12-02T03:17:00.455Z,21.80
2023-12-02T03:22:03.311Z,20.40
2023-12-02T03:27:04.824Z,20.02
2023-12-02T03:32:06.460Z,19.45
2023-12-02T03:37:08.009Z,19.05
2023-12-02T03:42:09.461Z,18.10
2023-12-02T03:47:10.748Z,18.63
2023-12-02T03:52:12.054Z,20.30
2023-12-02T03:57:13.350Z,17.98
2023-12-02T04:02:14.663Z,18.83
2023-12-02T04:07:16.036Z,18.50
2023-12-02T04:12:17.453Z,17.17
2023-12-02T04:17:18.813Z,17.60
2023-12-02T04:22:20.246Z,16.70
2023-12-02T04:27:22.086Z,17.27
2023-12-02T04:32:23.787Z,18.40
2023-12-02T04:37:25.243Z,16.73
2023-12-02T04:42:26.569Z,16.27
2023-12-02T04:47:27.893Z,16.80
2023-12-02T04:52:29.682Z,15.77
2023-12-02T04:57:32.179Z,15.23
2023-12-02T05:02:33.576Z,16.30
2023-12-02T05:07:34.898Z,17.20
2023-12-02T05:12:36.314Z,16.15
2023-12-02T05:17:37.859Z,17.48
2023-12-02T05:22:39.246Z,15.80
2023-12-02T05:27:40.681Z,16.27
2023-12-02T05:32:42.045Z,16.05
2023-12-02T05:37:43.398Z,16.05
2023-12-02T05:42:44.750Z,14.20
2023-12-02T05:47:46.104Z,15.20
2023-12-02T05:52:47.502Z,14.57
2023-12-02T05:57:48.867Z,14.30
2023-12-02T06:02:50.258Z,15.80
2023-12-02T06:07:51.551Z,14.30
2023-12-02T06:12:52.863Z,15.30
2023-12-02T06:17:57.715Z,15.73
2023-12-02T06:22:59.360Z,13.73
2023-12-02T06:28:00.681Z,14.52
2023-12-02T06:33:02.113Z,16.67
2023-12-02T06:38:03.471Z,13.98
2023-12-02T06:43:04.783Z,12.90
2023-12-02T06:48:06.192Z,17.02
2023-12-02T06:53:07.589Z,40.13
2023-12-02T06:58:09.178Z,38.22
2023-12-02T07:03:10.689Z,15.15
2023-12-02T07:08:12.042Z,14.63
2023-12-02T07:13:13.416Z,14.10
2023-12-02T07:18:14.899Z,16.83
2023-12-02T07:23:16.253Z,15.15
2023-12-02T07:28:17.593Z,13.27
2023-12-02T07:33:22.409Z,16.47
2023-12-02T07:38:23.757Z,15.77
2023-12-02T07:43:25.195Z,12.35
2023-12-02T07:48:26.616Z,13.18
2023-12-02T07:53:28.007Z,14.60
2023-12-02T07:58:29.393Z,13.60
2023-12-02T08:03:31.306Z,12.80
2023-12-02T08:08:32.649Z,14.30
2023-12-02T08:13:34.016Z,12.73
2023-12-02T08:18:35.400Z,14.48
2023-12-02T08:23:36.774Z,12.83
2023-12-02T08:28:38.140Z,12.73
2023-12-02T08:33:39.538Z,14.20
2023-12-02T08:38:40.858Z,12.20
2023-12-02T08:43:42.629Z,12.45
2023-12-02T08:48:44.896Z,13.07
2023-12-02T08:53:46.566Z,14.68
2023-12-02T08:58:47.978Z,14.05
2023-12-02T09:03:49.424Z,12.38
2023-12-02T09:08:50.886Z,22.13
2023-12-02T09:13:52.389Z,13.43
2023-12-02T09:18:53.924Z,14.15
2023-12-02T09:23:55.288Z,12.52
2023-12-02T09:28:56.723Z,12.77
2023-12-02T09:34:03.786Z,15.07
2023-12-02T09:39:10.787Z,12.53
2023-12-02T09:44:14.886Z,11.52
2023-12-02T09:49:28.593Z,12.18
2023-12-02T09:54:39.989Z,10.45
2023-12-02T09:59:53.296Z,11.90
2023-12-02T10:05:05.431Z,9.60
2023-12-02T10:10:11.121Z,8.65
2023-12-02T10:15:13.001Z,10.32
2023-12-02T10:20:15.688Z,12.05
2023-12-02T10:25:33.637Z,10.65
2023-12-02T10:30:37.643Z,10.37
2023-12-02T10:35:47.430Z,13.55
2023-12-02T10:40:51.617Z,10.55
2023-12-02T10:45:53.682Z,14.93
2023-12-02T10:50:55.299Z,19.10
2023-12-02T10:56:00.437Z,13.33
2023-12-02T11:01:05.510Z,16.27
2023-12-02T11:06:20.719Z,15.30
2023-12-02T11:11:29.845Z,11.85
2023-12-02T11:16:41.727Z,14.48
2023-12-02T11:21:45.644Z,18.27
2023-12-02T11:27:10.742Z,13.75
2023-12-02T11:32:20.725Z,12.50
2023-12-02T11:37:24.934Z,12.70
2023-12-02T11:42:30.563Z,12.90
2023-12-02T11:47:31.915Z,12.93
2023-12-02T11:52:48.230Z,13.98
2023-12-02T11:57:55.773Z,14.45
2023-12-02T12:02:57.173Z,17.17
2023-12-02T12:08:12.885Z,11.55
2023-12-02T12:13:15.496Z,11.30
2023-12-02T12:18:18.821Z,11.43
2023-12-02T12:23:23.007Z,21.55
2023-12-02T12:28:24.410Z,11.82
2023-12-02T12:33:25.985Z,12.23
2023-12-02T12:38:28.512Z,12.83
2023-12-02T12:43:29.998Z,11.40
2023-12-02T12:48:31.603Z,11.68
2023-12-02T12:53:39.582Z,11.93
2023-12-02T12:58:55.237Z,9.27
2023-12-02T13:04:06.147Z,12.40
2023-12-02T13:09:09.623Z,17.45
2023-12-02T13:14:11.758Z,18.48
2023-12-02T13:19:13.641Z,14.40
2023-12-02T13:24:16.782Z,10.85
2023-12-02T13:29:20.838Z,14.70
2023-12-02T13:34:41.684Z,17.92
2023-12-02T13:39:47.780Z,27.65
2023-12-02T13:44:51.894Z,48.92
2023-12-02T13:49:59.145Z,30.60
2023-12-02T13:55:19.454Z,20.30
2023-12-02T14:00:24.368Z,11.50
2023-12-02T14:05:44.682Z,16.27
2023-12-02T14:10:47.619Z,14.55
2023-12-02T14:15:55.312Z,14.23
2023-12-02T14:21:12.916Z,12.07
2023-12-02T14:26:36.995Z,10.30
2023-12-02T14:31:44.352Z,13.70
2023-12-02T14:37:07.346Z,14.57
2023-12-02T14:42:15.820Z,12.20
2023-12-02T14:47:17.248Z,13.67
2023-12-02T14:52:19.243Z,11.80
2023-12-02T14:57:22.061Z,11.88
2023-12-02T15:02:37.549Z,15.70
2023-12-02T15:07:40.514Z,12.70
2023-12-02T15:12:45.452Z,17.43
2023-12-02T15:17:49.338Z,19.35
2023-12-02T15:22:50.679Z,17.00
2023-12-02T15:27:51.984Z,13.68
2023-12-02T15:32:53.363Z,11.85
2023-12-02T15:37:56.165Z,14.23
2023-12-02T15:42:57.700Z,18.73
2023-12-02T15:47:59.131Z,17.38
2023-12-02T15:53:00.567Z,13.48
2023-12-02T15:58:02.248Z,33.03
2023-12-02T16:03:04.357Z,18.03
2023-12-02T16:08:08.260Z,12.13
2023-12-02T16:13:10.473Z,15.82
2023-12-02T16:18:11.854Z,14.38
2023-12-02T16:23:15.025Z,11.63
2023-12-02T16:28:16.352Z,14.80
2023-12-02T16:33:18.875Z,12.65
2023-12-02T16:38:20.448Z,16.30
2023-12-02T16:43:22.625Z,13.05
2023-12-02T16:48:24.498Z,15.07
2023-12-02T16:53:26.014Z,23.03
2023-12-02T16:58:27.421Z,19.98
2023-12-02T17:03:32.466Z,11.10
2023-12-02T17:08:34.367Z,11.95
2023-12-02T17:13:46.156Z,16.17
2023-12-02T17:19:02.825Z,12.40
2023-12-02T17:24:17.409Z,12.73
2023-12-02T17:29:20.199Z,10.05
2023-12-02T17:34:22.210Z,10.82
2023-12-02T17:39:26.378Z,12.65
2023-12-02T17:44:28.421Z,11.60
2023-12-02T17:49:32.108Z,11.90
2023-12-02T17:54:35.578Z,13.13
2023-12-02T17:59:37.088Z,13.02
2023-12-02T18:04:38.438Z,12.73
2023-12-02T18:09:40.031Z,15.77
2023-12-02T18:14:41.364Z,14.20
2023-12-02T18:19:42.735Z,11.95
2023-12-02T18:24:44.105Z,12.15
2023-12-02T18:29:45.522Z,13.43
2023-12-02T18:34:46.955Z,12.93
2023-12-02T18:39:48.298Z,13.48
2023-12-02T18:44:49.640Z,13.90
2023-12-02T18:49:51.597Z,17.83
2023-12-02T18:54:53.037Z,14.70
2023-12-02T18:59:55.170Z,11.73
2023-12-02T19:04:56.569Z,14.73
2023-12-02T19:09:57.949Z,12.98
2023-12-02T19:14:59.327Z,12.82
2023-12-02T19:20:00.823Z,10.80
2023-12-02T19:25:02.287Z,14.30
2023-12-02T19:30:04.080Z,13.30
2023-12-02T19:35:05.567Z,12.38
2023-12-02T19:40:09.436Z,15.20
2023-12-02T19:45:10.830Z,11.80
2023-12-02T19:50:13.225Z,14.20
2023-12-02T19:55:14.820Z,15.05
2023-12-02T20:00:16.378Z,25.50
2023-12-02T20:05:19.703Z,13.93
2023-12-02T20:10:21.100Z,14.07
2023-12-02T20:15:22.488Z,13.67
2023-12-02T20:20:24.239Z,14.90
2023-12-02T20:25:25.579Z,16.05
2023-12-02T20:30:26.922Z,11.25
2023-12-02T20:35:28.333Z,12.07
2023-12-02T20:40:29.644Z,11.80
2023-12-02T20:45:31.079Z,13.38
2023-12-02T20:50:32.464Z,14.32
2023-12-02T20:55:33.782Z,13.07
2023-12-02T21:00:36.055Z,15.02
2023-12-02T21:05:37.472Z,16.43
2023-12-02T21:10:40.375Z,17.55
2023-12-02T21:15:43.720Z,12.93
2023-12-02T21:20:45.915Z,13.95
2023-12-02T21:25:47.329Z,12.63
2023-12-02T21:30:48.901Z,14.40
2023-12-02T21:35:53.081Z,14.88
2023-12-02T21:40:54.485Z,14.52
2023-12-02T21:45:55.848Z,12.77
2023-12-02T21:50:57.505Z,14.38
2023-12-02T21:55:58.880Z,15.57
2023-12-02T22:01:07.196Z,13.73
2023-12-02T22:06:28.668Z,13.85
2023-12-02T22:11:38.181Z,13.25
2023-12-02T22:16:39.704Z,17.27
2023-12-02T22:21:41.139Z,13.50
2023-12-02T22:26:42.698Z,15.15
2023-12-02T22:31:44.097Z,16.50
2023-12-02T22:36:46.029Z,16.27
2023-12-02T22:41:48.511Z,15.30
2023-12-02T22:46:51.032Z,16.30
2023-12-02T22:51:53.093Z,16.52
2023-12-02T22:56:58.474Z,18.67
2023-12-02T23:01:59.856Z,18.08
2023-12-02T23:07:02.103Z,19.33
2023-12-02T23:12:04.970Z,21.40
2023-12-02T23:17:06.863Z,19.10
2023-12-02T23:22:09.735Z,16.92
2023-12-02T23:27:14.155Z,19.75
2023-12-02T23:32:16.728Z,18.23
2023-12-02T23:37:21.501Z,18.93
2023-12-02T23:42:33.406Z,19.42
2023-12-02T23:47:36.362Z,18.92
2023-12-02T23:52:39.158Z,20.83
2023-12-02T23:57:42.314Z,21.13
